createdAt,value
2023-07-25T00:00:49.489Z,97369.44
2023-07-25T00:03:15.858Z,97378.50
2023-07-25T00:05:42.223Z,97373.97
2023-07-25T00:08:08.587Z,97376.38
2023-07-25T00:10:35.496Z,97372.94
2023-07-25T00:13:01.854Z,97379.31
2023-07-25T00:15:28.225Z,97392.34
2023-07-25T00:17:54.616Z,97396.88
2023-07-25T00:20:20.971Z,97390.75
2023-07-25T00:22:47.391Z,97390.75
2023-07-25T00:25:13.838Z,97392.63
2023-07-25T00:27:40.218Z,97389.97
2023-07-25T00:30:06.810Z,97395.28
2023-07-25T00:32:36.373Z,97386.50
2023-07-25T00:35:03.014Z,97383.84
2023-07-25T00:37:32.408Z,97389.16
2023-07-25T00:39:58.810Z,97384.63
2023-07-25T00:42:25.227Z,97392.63
2023-07-25T00:44:51.797Z,97393.69
2023-07-25T00:47:18.831Z,97395.28
2023-07-25T00:49:45.185Z,97399.81
2023-07-25T00:52:11.534Z,97394.50
2023-07-25T00:54:41.047Z,97387.59
2023-07-25T00:57:07.444Z,97390.25
2023-07-25T00:59:33.842Z,97389.47
2023-07-25T01:02:00.257Z,97396.66
2023-07-25T01:04:26.831Z,97392.41
2023-07-25T01:06:53.630Z,97407.31
2023-07-25T01:09:38.958Z,97398.78
2023-07-25T01:12:05.588Z,97402.25
2023-07-25T01:14:32.722Z,97393.75
2023-07-25T01:17:15.294Z,97384.19
2023-07-25T01:19:42.710Z,97387.94
2023-07-25T01:22:09.262Z,97387.94
2023-07-25T01:24:42.019Z,97387.94
2023-07-25T01:27:08.449Z,97392.44
2023-07-25T01:29:34.835Z,97396.72
2023-07-25T01:32:01.188Z,97403.91
2023-07-25T01:34:27.622Z,97411.06
2023-07-25T01:36:54.008Z,97413.47
2023-07-25T01:39:20.354Z,97408.94
2023-07-25T01:41:46.765Z,97407.34
2023-07-25T01:44:13.173Z,97407.34
2023-07-25T01:46:40.071Z,97403.09
2023-07-25T01:49:06.447Z,97403.09
2023-07-25T01:51:33.042Z,97403.09
2023-07-25T01:54:00.022Z,97401.25
2023-07-25T01:56:26.645Z,97386.31
2023-07-25T01:58:53.068Z,97390.06
2023-07-25T02:01:19.529Z,97389.28
2023-07-25T02:03:46.315Z,97386.91
2023-07-25T02:06:12.711Z,97389.28
2023-07-25T02:08:39.093Z,97387.41
2023-07-25T02:11:05.611Z,97391.16
2023-07-25T02:13:31.961Z,97389.56
2023-07-25T02:15:58.339Z,97389.28
2023-07-25T02:18:24.744Z,97381.59
2023-07-25T02:20:51.099Z,97368.34
2023-07-25T02:23:17.474Z,97369.06
2023-07-25T02:25:47.176Z,97372.56
2023-07-25T02:28:13.626Z,97366.16
2023-07-25T02:30:40.105Z,97370.94
2023-07-25T02:33:06.977Z,97377.03
2023-07-25T02:35:33.381Z,97376.47
2023-07-25T02:37:59.749Z,97371.13
2023-07-25T02:40:26.928Z,97372.75
2023-07-25T02:42:53.284Z,97379.66
2023-07-25T02:45:19.648Z,97375.13
2023-07-25T02:47:46.095Z,97376.19
2023-07-25T02:50:12.551Z,97374.63
2023-07-25T02:52:38.938Z,97366.63
2023-07-25T02:55:06.451Z,97371.13
2023-07-25T02:57:33.048Z,97373.81
2023-07-25T02:59:59.429Z,97377.28
2023-07-25T03:02:25.851Z,97364.25
2023-07-25T03:04:52.324Z,97365.81
2023-07-25T03:07:19.005Z,97362.38
2023-07-25T03:09:45.376Z,97370.34
2023-07-25T03:12:11.940Z,97368.47
2023-07-25T03:14:38.301Z,97373.81
2023-07-25T03:17:04.712Z,97372.75
2023-07-25T03:19:31.080Z,97371.44
2023-07-25T03:21:57.526Z,97379.41
2023-07-25T03:24:23.959Z,97380.50
2023-07-25T03:26:50.342Z,97376.25
2023-07-25T03:29:16.695Z,97373.59
2023-07-25T03:31:43.244Z,97370.94
2023-07-25T03:34:09.654Z,97373.59
2023-07-25T03:36:36.079Z,97376.53
2023-07-25T03:39:03.870Z,97376.53
2023-07-25T03:41:30.589Z,97386.13
2023-07-25T03:43:57.180Z,97378.41
2023-07-25T03:46:23.642Z,97383.72
2023-07-25T03:48:50.005Z,97382.63
2023-07-25T03:51:16.378Z,97383.72
2023-07-25T03:53:43.020Z,97389.03
2023-07-25T03:56:09.374Z,97382.13
2023-07-25T03:58:35.730Z,97386.38
2023-07-25T04:01:02.109Z,97385.59
2023-07-25T04:03:28.625Z,97390.91
2023-07-25T04:05:55.202Z,97394.38
2023-07-25T04:08:21.599Z,97390.13
2023-07-25T04:10:48.009Z,97387.47
2023-07-25T04:13:14.378Z,97390.91
2023-07-25T04:15:40.728Z,97385.88
2023-07-25T04:18:07.129Z,97386.66
2023-07-25T04:20:33.508Z,97392.78
2023-07-25T04:23:00.405Z,97398.09
2023-07-25T04:25:26.849Z,97388.25
2023-07-25T04:27:53.219Z,97388.53
2023-07-25T04:30:19.571Z,97391.19
2023-07-25T04:32:46.045Z,97378.97
2023-07-25T04:35:12.618Z,97378.19
2023-07-25T04:37:39.293Z,97388.84
2023-07-25T04:40:06.285Z,97389.63
2023-07-25T04:42:32.641Z,97386.97
2023-07-25T04:44:59.257Z,97376.31
2023-07-25T04:47:25.770Z,97381.63
2023-07-25T04:49:52.177Z,97382.44
2023-07-25T04:52:18.569Z,97382.44
2023-07-25T04:54:44.941Z,97383.50
2023-07-25T04:57:11.527Z,97377.91
2023-07-25T04:59:37.884Z,97378.41
2023-07-25T05:02:04.284Z,97373.06
2023-07-25T05:04:30.655Z,97367.97
2023-07-25T05:06:57.083Z,97374.09
2023-07-25T05:09:23.524Z,97372.75
2023-07-25T05:11:52.184Z,97380.44
2023-07-25T05:14:18.831Z,97382.25
2023-07-25T05:16:45.556Z,97377.72
2023-07-25T05:19:11.949Z,97379.31
2023-07-25T05:21:38.310Z,97371.06
2023-07-25T05:24:04.714Z,97364.03
2023-07-25T05:26:31.112Z,97356.78
2023-07-25T05:28:57.459Z,97362.28
2023-07-25T05:31:23.930Z,97367.81
2023-07-25T05:33:50.338Z,97364.59
2023-07-25T05:36:16.711Z,97365.69
2023-07-25T05:38:43.107Z,97363.03
2023-07-25T05:41:09.458Z,97361.06
2023-07-25T05:43:35.823Z,97353.94
2023-07-25T05:46:02.233Z,97366.09
2023-07-25T05:48:28.665Z,97371.25
2023-07-25T05:50:55.025Z,97377.84
2023-07-25T05:53:21.440Z,97378.38
2023-07-25T05:55:47.933Z,97372.59
2023-07-25T05:58:14.718Z,97371.72
2023-07-25T06:00:41.195Z,97376.75
2023-07-25T06:03:07.671Z,97387.94
2023-07-25T06:05:36.981Z,97397.81
2023-07-25T06:08:03.332Z,97393.28
2023-07-25T06:10:29.737Z,97400.19
2023-07-25T06:12:56.107Z,97396.72
2023-07-25T06:15:22.477Z,97412.72
2023-07-25T06:17:48.870Z,97412.41
2023-07-25T06:20:15.258Z,97416.41
2023-07-25T06:22:41.636Z,97422.44
2023-07-25T06:25:08.804Z,97425.63
2023-07-25T06:27:35.210Z,97438.50
2023-07-25T06:30:04.542Z,97446.44
2023-07-25T06:32:31.384Z,97451.66
2023-07-25T06:34:57.826Z,97449.97
2023-07-25T06:37:24.222Z,97452.84
2023-07-25T06:39:50.623Z,97461.03
2023-07-25T06:42:16.999Z,97452.28
2023-07-25T06:44:43.346Z,97452.22
2023-07-25T06:47:09.802Z,97446.31
2023-07-25T06:49:36.165Z,97450.78
2023-07-25T06:52:02.574Z,97455.25
2023-07-25T06:54:29.178Z,97451.69
2023-07-25T06:56:55.554Z,97459.13
2023-07-25T06:59:21.909Z,97454.41
2023-07-25T07:01:48.285Z,97448.75
2023-07-25T07:04:14.740Z,97455.38
2023-07-25T07:06:41.190Z,97450.00
2023-07-25T07:09:07.548Z,97438.06
2023-07-25T07:11:34.175Z,97432.44
2023-07-25T07:14:00.824Z,97430.13
2023-07-25T07:16:27.236Z,97426.72
2023-07-25T07:18:53.913Z,97433.63
2023-07-25T07:21:20.280Z,97425.16
2023-07-25T07:23:46.662Z,97415.75
2023-07-25T07:26:13.029Z,97413.22
2023-07-25T07:28:40.206Z,97417.81
2023-07-25T07:31:10.005Z,97416.63
2023-07-25T07:33:36.548Z,97412.38
2023-07-25T07:36:02.911Z,97410.22
2023-07-25T07:38:29.276Z,97396.63
2023-07-25T07:40:55.627Z,97391.59
2023-07-25T07:43:22.018Z,97396.41
2023-07-25T07:45:48.887Z,97389.16
2023-07-25T07:48:15.250Z,97384.84
2023-07-25T07:50:41.596Z,97387.72
2023-07-25T07:53:07.958Z,97387.41
2023-07-25T07:55:34.316Z,97392.69
2023-07-25T07:58:01.322Z,97398.88
2023-07-25T08:00:27.903Z,97396.19
2023-07-25T08:02:54.298Z,97393.31
2023-07-25T08:05:20.742Z,97385.03
2023-07-25T08:07:47.235Z,97388.19
2023-07-25T08:10:13.713Z,97386.75
2023-07-25T08:12:40.222Z,97393.44
2023-07-25T08:15:07.006Z,97390.56
2023-07-25T08:17:33.419Z,97403.91
2023-07-25T08:20:00.107Z,97403.47
2023-07-25T08:22:26.485Z,97399.69
2023-07-25T08:24:53.128Z,97409.25
2023-07-25T08:27:19.515Z,97402.50
2023-07-25T08:29:48.874Z,97399.50
2023-07-25T08:32:15.948Z,97393.69
2023-07-25T08:34:42.926Z,97395.22
2023-07-25T08:37:09.394Z,97389.91
2023-07-25T08:39:35.839Z,97398.41
2023-07-25T08:42:04.776Z,97395.56
2023-07-25T08:44:31.137Z,97405.84
2023-07-25T08:46:57.827Z,97403.19
2023-07-25T08:49:24.872Z,97405.91
2023-07-25T08:51:54.493Z,97405.34
2023-07-25T08:54:38.860Z,97407.22
2023-07-25T08:57:05.395Z,97413.53
2023-07-25T08:59:32.060Z,97412.25
2023-07-25T09:01:58.623Z,97407.72
2023-07-25T09:04:25.500Z,97411.91
2023-07-25T09:06:52.022Z,97417.78
2023-07-25T09:09:18.526Z,97417.78
2023-07-25T09:11:45.487Z,97418.00
2023-07-25T09:14:12.197Z,97407.59
2023-07-25T09:16:38.616Z,97412.66
2023-07-25T09:19:05.009Z,97418.97
2023-07-25T09:21:31.677Z,97428.63
2023-07-25T09:23:59.021Z,97427.59
2023-07-25T09:26:26.554Z,97428.88
2023-07-25T09:28:53.699Z,97431.50
2023-07-25T09:31:23.092Z,97429.59
2023-07-25T09:33:49.803Z,97426.34
2023-07-25T09:36:16.282Z,97421.28
2023-07-25T09:38:54.935Z,97423.44
2023-07-25T09:41:21.875Z,97421.81
2023-07-25T09:43:48.245Z,97421.56
2023-07-25T09:46:14.825Z,97425.00
2023-07-25T09:48:48.936Z,97422.13
2023-07-25T09:51:15.424Z,97411.22
2023-07-25T09:53:45.367Z,97418.47
2023-07-25T09:56:11.743Z,97412.13
2023-07-25T09:58:44.519Z,97414.78
2023-07-25T10:01:17.660Z,97409.44
2023-07-25T10:03:44.890Z,97410.44
2023-07-25T10:06:18.087Z,97409.34
2023-07-25T10:08:47.117Z,97416.66
2023-07-25T10:11:13.784Z,97399.88
2023-07-25T10:13:42.932Z,97407.81
2023-07-25T10:16:09.631Z,97404.31
2023-07-25T10:18:36.337Z,97411.75
2023-07-25T10:21:03.065Z,97415.75
2023-07-25T10:23:29.997Z,97406.50
2023-07-25T10:25:56.382Z,97406.69
2023-07-25T10:28:23.521Z,97414.19
2023-07-25T10:30:49.957Z,97411.81
2023-07-25T10:33:17.018Z,97411.22
2023-07-25T10:35:55.851Z,97416.00
2023-07-25T10:38:34.392Z,97419.16
2023-07-25T10:41:01.386Z,97425.69
2023-07-25T10:43:29.062Z,97419.88
2023-07-25T10:45:56.165Z,97426.56
2023-07-25T10:48:32.386Z,97420.25
2023-07-25T10:50:58.979Z,97428.56
2023-07-25T10:53:25.775Z,97425.84
2023-07-25T10:56:07.718Z,97425.78
2023-07-25T10:58:38.577Z,97437.19
2023-07-25T11:01:05.143Z,97432.97
2023-07-25T11:03:32.654Z,97429.81
2023-07-25T11:06:08.237Z,97436.72
2023-07-25T11:08:38.232Z,97429.88
2023-07-25T11:11:08.423Z,97435.66
2023-07-25T11:13:35.391Z,97429.53
2023-07-25T11:16:02.254Z,97427.97
2023-07-25T11:18:28.690Z,97421.66
2023-07-25T11:21:02.048Z,97423.28
2023-07-25T11:23:28.427Z,97427.50
2023-07-25T11:25:55.482Z,97425.38
2023-07-25T11:28:22.052Z,97428.50
2023-07-25T11:30:48.619Z,97430.44
2023-07-25T11:33:15.021Z,97434.13
2023-07-25T11:35:41.487Z,97430.66
2023-07-25T11:38:07.918Z,97433.84
2023-07-25T11:40:34.304Z,97436.53
2023-07-25T11:43:00.705Z,97436.25
2023-07-25T11:45:27.323Z,97445.03
2023-07-25T11:47:53.774Z,97446.09
2023-07-25T11:50:26.320Z,97449.81
2023-07-25T11:52:55.671Z,97451.72
2023-07-25T11:55:22.062Z,97460.75
2023-07-25T11:57:48.832Z,97457.88
2023-07-25T12:00:17.233Z,97454.69
2023-07-25T12:02:43.786Z,97453.09
2023-07-25T12:05:10.458Z,97457.06
2023-07-25T12:07:52.145Z,97446.19
2023-07-25T12:10:27.949Z,97441.69
2023-07-25T12:12:55.081Z,97446.69
2023-07-25T12:15:21.458Z,97452.00
2023-07-25T12:17:47.973Z,97450.69
2023-07-25T12:20:15.161Z,97448.84
2023-07-25T12:22:41.532Z,97456.47
2023-07-25T12:25:08.003Z,97455.16
2023-07-25T12:27:34.470Z,97448.53
2023-07-25T12:30:00.834Z,97455.91
2023-07-25T12:32:27.213Z,97451.16
2023-07-25T12:35:00.363Z,97450.16
2023-07-25T12:37:26.739Z,97447.69
2023-07-25T12:39:53.130Z,97462.25
2023-07-25T12:42:19.495Z,97452.16
2023-07-25T12:44:45.859Z,97453.25
2023-07-25T12:47:12.208Z,97453.75
2023-07-25T12:49:38.560Z,97443.44
2023-07-25T12:52:05.118Z,97446.09
2023-07-25T12:54:31.498Z,97455.09
2023-07-25T12:56:57.887Z,97452.75
2023-07-25T12:59:24.273Z,97451.66
2023-07-25T13:01:50.780Z,97453.44
2023-07-25T13:04:17.330Z,97448.13
2023-07-25T13:06:44.328Z,97449.66
2023-07-25T13:09:10.716Z,97450.72
2023-07-25T13:11:37.083Z,97445.88
2023-07-25T13:14:03.760Z,97446.88
2023-07-25T13:16:30.473Z,97444.47
2023-07-25T13:18:57.286Z,97431.13
2023-07-25T13:21:23.693Z,97444.50
2023-07-25T13:23:50.077Z,97450.56
2023-07-25T13:26:16.461Z,97453.97
2023-07-25T13:28:42.863Z,97449.66
2023-07-25T13:31:09.259Z,97445.69
2023-07-25T13:33:35.749Z,97448.00
2023-07-25T13:36:02.157Z,97440.59
2023-07-25T13:38:28.517Z,97451.31
2023-07-25T13:40:54.921Z,97447.88
2023-07-25T13:43:21.385Z,97449.88
2023-07-25T13:45:52.560Z,97447.84
2023-07-25T13:48:19.910Z,97455.28
2023-07-25T13:50:52.683Z,97449.00
2023-07-25T13:53:19.831Z,97453.50
2023-07-25T13:55:46.236Z,97451.34
2023-07-25T14:00:49.334Z,97451.59
2023-07-25T14:03:15.745Z,97460.75
2023-07-25T14:05:42.124Z,97457.31
2023-07-25T14:08:08.909Z,97455.91
2023-07-25T14:10:36.406Z,97459.97
2023-07-25T14:13:02.814Z,97462.13
2023-07-25T14:15:31.497Z,97463.22
2023-07-25T14:17:58.128Z,97462.91
2023-07-25T14:20:25.137Z,97470.06
2023-07-25T14:22:51.505Z,97470.59
2023-07-25T14:25:17.877Z,97459.13
2023-07-25T14:27:44.295Z,97457.22
2023-07-25T14:30:10.768Z,97455.63
2023-07-25T14:32:37.177Z,97463.34
2023-07-25T14:35:04.350Z,97465.78
2023-07-25T14:37:36.980Z,97463.16
2023-07-25T14:40:10.761Z,97469.81
2023-07-25T14:42:37.161Z,97466.72
2023-07-25T14:45:03.583Z,97465.69
2023-07-25T14:47:30.040Z,97473.66
2023-07-25T14:49:56.486Z,97479.47
2023-07-25T14:52:22.860Z,97478.69
2023-07-25T14:54:49.217Z,97481.34
2023-07-25T14:57:17.963Z,97479.22
2023-07-25T14:59:44.628Z,97477.44
2023-07-25T15:02:11.206Z,97471.78
2023-07-25T15:04:37.610Z,97479.47
2023-07-25T15:07:03.975Z,97485.53
2023-07-25T15:09:30.372Z,97483.94
2023-07-25T15:11:56.737Z,97481.00
2023-07-25T15:14:24.908Z,97485.50
2023-07-25T15:16:51.485Z,97488.94
2023-07-25T15:19:17.861Z,97490.84
2023-07-25T15:21:44.288Z,97492.72
2023-07-25T15:24:10.665Z,97486.63
2023-07-25T15:26:37.032Z,97495.66
2023-07-25T15:29:03.753Z,97493.81
2023-07-25T15:31:30.925Z,97499.13
2023-07-25T15:33:57.565Z,97496.44
2023-07-25T15:36:24.014Z,97497.22
2023-07-25T15:38:50.408Z,97500.38
2023-07-25T15:41:16.757Z,97502.22
2023-07-25T15:43:43.149Z,97499.84
2023-07-25T15:46:09.597Z,97506.50
2023-07-25T15:48:35.967Z,97497.19
2023-07-25T15:51:02.336Z,97500.22
2023-07-25T15:53:28.741Z,97500.66
2023-07-25T15:55:55.126Z,97503.63
2023-07-25T15:58:21.509Z,97500.97
2023-07-25T16:00:47.917Z,97499.94
2023-07-25T16:03:14.377Z,97505.78
2023-07-25T16:05:40.796Z,97503.69
2023-07-25T16:08:07.142Z,97510.31
2023-07-25T16:10:33.518Z,97499.19
2023-07-25T16:13:02.767Z,97498.94
2023-07-25T16:15:33.199Z,97494.41
2023-07-25T16:18:00.443Z,97494.91
2023-07-25T16:20:27.053Z,97488.53
2023-07-25T16:22:53.400Z,97489.81
2023-07-25T16:25:19.784Z,97487.69
2023-07-25T16:27:46.134Z,97485.53
2023-07-25T16:30:12.527Z,97485.78
2023-07-25T16:32:38.889Z,97483.91
2023-07-25T16:35:05.399Z,97484.78
2023-07-25T16:37:31.771Z,97485.31
2023-07-25T16:39:58.131Z,97486.38
2023-07-25T16:42:24.561Z,97491.22
2023-07-25T16:44:50.911Z,97490.13
2023-07-25T16:47:19.652Z,97492.28
2023-07-25T16:49:46.049Z,97500.25
2023-07-25T16:52:12.431Z,97495.22
2023-07-25T16:54:38.769Z,97500.00
2023-07-25T16:57:05.171Z,97491.00
2023-07-25T16:59:31.562Z,97495.25
2023-07-25T17:01:58.763Z,97497.38
2023-07-25T17:04:25.193Z,97505.59
2023-07-25T17:06:51.560Z,97500.31
2023-07-25T17:09:18.404Z,97513.84
2023-07-25T17:11:44.887Z,97511.72
2023-07-25T17:14:11.274Z,97507.44
2023-07-25T17:16:37.658Z,97502.66
2023-07-25T17:19:04.035Z,97515.13
2023-07-25T17:21:40.589Z,97513.81
2023-07-25T17:24:08.233Z,97516.47
2023-07-25T17:26:34.597Z,97516.72
2023-07-25T17:29:00.966Z,97522.88
2023-07-25T17:31:27.535Z,97520.19
2023-07-25T17:33:54.026Z,97529.22
2023-07-25T17:36:20.474Z,97531.34
2023-07-25T17:38:46.849Z,97528.94
2023-07-25T17:41:14.755Z,97534.50
2023-07-25T17:43:41.138Z,97530.84
2023-07-25T17:46:07.528Z,97527.06
2023-07-25T17:48:34.502Z,97540.28
2023-07-25T17:51:00.854Z,97537.13
2023-07-25T17:53:27.636Z,97531.78
2023-07-25T17:55:55.970Z,97549.84
2023-07-25T17:58:22.382Z,97550.94
2023-07-25T18:00:50.364Z,97554.09
2023-07-25T18:03:17.132Z,97553.31
2023-07-25T18:05:46.186Z,97554.88
2023-07-25T18:08:12.667Z,97562.06
2023-07-25T18:10:39.015Z,97566.31
2023-07-25T18:13:05.417Z,97570.56
2023-07-25T18:15:31.799Z,97565.78
2023-07-25T18:17:58.343Z,97569.22
2023-07-25T18:20:24.869Z,97570.56
2023-07-25T18:22:51.230Z,97568.94
2023-07-25T18:25:17.631Z,97579.56
2023-07-25T18:27:44.001Z,97580.59
2023-07-25T18:30:10.530Z,97588.31
2023-07-25T18:32:36.910Z,97584.88
2023-07-25T18:35:03.366Z,97592.28
2023-07-25T18:37:29.725Z,97591.47
2023-07-25T18:39:56.168Z,97587.22
2023-07-25T18:42:22.593Z,97593.88
2023-07-25T18:44:49.159Z,97600.78
2023-07-25T18:47:24.730Z,97603.44
2023-07-25T18:49:55.406Z,97599.69
2023-07-25T18:52:21.767Z,97605.81
2023-07-25T18:54:48.148Z,97607.97
2023-07-25T18:57:18.621Z,97618.84
2023-07-25T18:59:44.976Z,97616.19
2023-07-25T19:02:11.443Z,97619.91
2023-07-25T19:04:37.824Z,97621.00
2023-07-25T19:07:04.253Z,97618.06
2023-07-25T19:09:30.609Z,97629.75
2023-07-25T19:11:58.485Z,97642.78
2023-07-25T19:14:24.863Z,97641.19
2023-07-25T19:16:51.364Z,97640.38
2023-07-25T19:19:17.986Z,97652.09
2023-07-25T19:21:44.353Z,97655.59
2023-07-25T19:24:10.717Z,97656.06
2023-07-25T19:26:37.512Z,97659.53
2023-07-25T19:29:03.904Z,97668.59
2023-07-25T19:31:30.273Z,97674.19
2023-07-25T19:33:57.655Z,97682.16
2023-07-25T19:36:24.030Z,97685.88
2023-07-25T19:38:50.472Z,97676.31
2023-07-25T19:41:17.178Z,97677.38
2023-07-25T19:43:43.550Z,97684.28
2023-07-25T19:46:09.966Z,97686.41
2023-07-25T19:48:36.354Z,97694.13
2023-07-25T19:51:12.146Z,97699.97
2023-07-25T19:53:38.570Z,97702.88
2023-07-25T19:56:05.226Z,97703.94
2023-07-25T19:58:31.607Z,97703.69
2023-07-25T20:00:58.225Z,97705.31
2023-07-25T20:03:25.079Z,97711.66
2023-07-25T20:05:51.535Z,97710.63
2023-07-25T20:08:17.951Z,97716.44
2023-07-25T20:10:44.355Z,97717.50
2023-07-25T20:13:10.786Z,97721.50
2023-07-25T20:15:37.177Z,97724.44
2023-07-25T20:18:03.548Z,97729.47
2023-07-25T20:20:29.985Z,97726.00
2023-07-25T20:22:56.379Z,97731.88
2023-07-25T20:25:22.834Z,97725.22
2023-07-25T20:27:49.220Z,97729.75
2023-07-25T20:30:15.610Z,97731.06
2023-07-25T20:32:42.083Z,97740.38
2023-07-25T20:35:08.468Z,97736.38
2023-07-25T20:37:34.838Z,97742.25
2023-07-25T20:40:01.217Z,97739.84
2023-07-25T20:42:27.688Z,97752.59
2023-07-25T20:44:54.057Z,97749.66
2023-07-25T20:47:20.413Z,97754.47
2023-07-25T20:49:46.801Z,97762.44
2023-07-25T20:52:13.176Z,97766.13
2023-07-25T20:54:39.557Z,97760.03
2023-07-25T20:57:06.043Z,97762.44
2023-07-25T20:59:34.880Z,97763.50
2023-07-25T21:02:01.284Z,97760.84
2023-07-25T21:04:29.089Z,97767.19
2023-07-25T21:06:55.663Z,97772.50
2023-07-25T21:09:22.078Z,97779.69
2023-07-25T21:11:48.511Z,97775.16
2023-07-25T21:14:15.114Z,97778.91
2023-07-25T21:16:41.704Z,97775.16
2023-07-25T21:19:08.131Z,97778.91
2023-07-25T21:21:34.714Z,97779.69
2023-07-25T21:24:01.269Z,97784.22
2023-07-25T21:26:27.645Z,97776.75
2023-07-25T21:28:54.008Z,97785.28
2023-07-25T21:31:20.388Z,97783.69
2023-07-25T21:33:46.769Z,97789.25
2023-07-25T21:36:14.140Z,97791.38
2023-07-25T21:38:40.886Z,97795.91
2023-07-25T21:41:07.814Z,97799.34
2023-07-25T21:43:34.411Z,97795.91
2023-07-25T21:46:01.327Z,97798.81
2023-07-25T21:48:29.114Z,97813.72
2023-07-25T21:50:55.622Z,97809.44
2023-07-25T21:53:22.027Z,97810.47
2023-07-25T21:55:48.444Z,97810.47
2023-07-25T21:58:14.812Z,97817.63
2023-07-25T22:00:41.869Z,97824.81
2023-07-25T22:03:08.587Z,97822.16
2023-07-25T22:05:35.026Z,97825.09
2023-07-25T22:08:01.484Z,97827.97
2023-07-25T22:10:27.848Z,97826.16
2023-07-25T22:12:54.221Z,97831.72
2023-07-25T22:15:20.643Z,97826.41
2023-07-25T22:17:47.041Z,97830.63
2023-07-25T22:20:13.538Z,97837.81
2023-07-25T22:22:39.917Z,97835.16
2023-07-25T22:25:06.481Z,97839.69
2023-07-25T22:27:33.220Z,97839.44
2023-07-25T22:29:59.564Z,97839.69
2023-07-25T22:32:26.224Z,97844.75
2023-07-25T22:34:52.612Z,97839.69
2023-07-25T22:37:19.041Z,97846.06
2023-07-25T22:39:45.390Z,97846.84
2023-07-25T22:42:11.742Z,97846.31
2023-07-25T22:44:38.112Z,97843.91
2023-07-25T22:47:04.541Z,97847.63
2023-07-25T22:49:31.709Z,97842.59
2023-07-25T22:51:58.070Z,97850.00
2023-07-25T22:54:24.514Z,97850.00
2023-07-25T22:56:51.597Z,97853.72
2023-07-25T22:59:18.010Z,97853.72
2023-07-25T23:01:44.440Z,97843.91
2023-07-25T23:04:10.855Z,97854.81
2023-07-25T23:06:37.579Z,97853.72
2023-07-25T23:09:04.106Z,97855.59
2023-07-25T23:11:30.742Z,97853.72
2023-07-25T23:13:57.640Z,97855.31
2023-07-25T23:16:24.042Z,97856.38
2023-07-25T23:18:50.461Z,97861.44
2023-07-25T23:21:16.816Z,97865.94
2023-07-25T23:23:43.563Z,97861.69
2023-07-25T23:26:09.938Z,97864.09
2023-07-25T23:28:36.309Z,97865.94
2023-07-25T23:31:02.936Z,97862.50
2023-07-25T23:33:29.368Z,97871.53
2023-07-25T23:35:55.808Z,97864.88
2023-07-25T23:38:22.204Z,97867.53
2023-07-25T23:40:48.613Z,97871.25
2023-07-25T23:43:16.881Z,97868.06
2023-07-25T23:45:43.302Z,97867.28
2023-07-25T23:48:09.673Z,97858.50
2023-07-25T23:50:36.085Z,97868.06
2023-07-25T23:53:02.463Z,97868.06
2023-07-25T23:55:28.856Z,97873.91
2023-07-25T23:57:55.224Z,97868.59
